Syosset, NY (11773)

5:33 AM EST on December 25, 2014 (GMT -0500)
Town of Oyster Bay Public Safety | Change Station
CLOSE
Current Station
Personal Weather Station
Location: Syosset, NY
Elevation: 197 ft
Nearby Weather Stations

Elev 197 ft 40.80 °N, 73.51 °W | Updated 3 minutes ago

Overcast
Overcast
56.8 °F
Feels Like 56.8 °F
N
8.0
Wind Variable Wind from SE
Gusts 16.0 mph

Today
High -- | Low -- °F
--% Chance of Precip.
Yesterday
High -- | Low -- °F
Precip. -- in
7:16 AM 4:31 PM
Waxing Crescent, 15% visible
Pressure 29.57 in
Visibility 6.0 miles
Clouds Scattered Clouds 300 ft
Mostly Cloudy 5000 ft
Overcast 8500 ft
Dew Point 57 °F
Humidity 100%
Rainfall -999.00 in
Snow Depth Not available.
UV 0 out of 12
Pollen .10 out of 12
Air Quality Not available.
Flu Activity Not available.
SPECI KFRG 251024Z AUTO 25008KT 6SM RA BR SCT003 BKN050 OVC085 12/12 A2957 RMK AO2 RAB0958 P0002 T01220122

More Conditions Fewer Conditions

Pressure 29.57 in
Visibility 6.0 miles
Clouds Scattered Clouds 300 ft
Mostly Cloudy 5000 ft
Overcast 8500 ft
Dew Point 57 °F
Humidity 100%
Rainfall -999.00 in
Snow Depth Not available.
UV 0 out of 12
Pollen .10 out of 12
Air Quality Not available.
Flu Activity Not available.
SPECI KFRG 251024Z AUTO 25008KT 6SM RA BR SCT003 BKN050 OVC085 12/12 A2957 RMK AO2 RAB0958 P0002 T01220122

More Conditions Fewer Conditions

10-Day Weather Forecast

Almanac

Astronomy

Dec. 25, 2014 Rise Set
Actual Time
Civil Twilight
Nautical Twilight
Astronomical Twilight
Moon
Length of Visible Light
Length of Day
Tomorrow will be .
, % of the Moon is Illuminated

Today's Extremes

State Highs State Lows

Community

WunderPhotos

Upload Photos

1,780,254 photos uploaded!

WunderBlogs® & News

Nearby

Air Quality

  Air Quality AQ Index Pollutant
Not available.

Snow Depth

Station Depth Elevation

Earthquake Activity

City Distance Mag. Time & Date
Minimum magnitude displayed is 2.5.

Coastal Water Temperatures

Place Temperature

Nearby Weather Stations